Decoded Metar for CYRJ (ROBERVAL in QC, CANADA) (IATA:YRJ) | Meteo·Mobile Aviation Weather
aviador You're here:

CYRJ Decoded Metar

ROBERVAL in QC, CANADA
Report Time2020-02-22 21:00:00
UTC Time2020-02-22 21:23:39
Flight Rules vfr VFR
Wind250° at 08 Gusting to 20 kt
W.Decomp.*RWY 34: 2.3 kt HW 7.7 kt LCW
Visibility9999 m
Phenomena:N/A
Clouds:Few 050 Hf
Overcast 130 Hf
Expected CloudBase > 4,000 ft AGL from Temp-Dew spread
Ceiling13,000 ft
Temp03°C (ISA -11)
Dew Point-7°C (48% RH)
AAT-2.7°C
QNH1008 hPa
Density Alt-502 ft
Elevation587 ft
Report Wrong Elevation
Raw Report
CYRJ 222100Z 25008G20KT 40SM FEW050 OVC130 03/M07 A2978 RMK SC1AC8
SC TR SLP096=

Extra information for CYRJ:More info

Metar Taf Metar & Taf Last 4 Metars F.Rules Stats Wind Profile Meteogram Temp Stats Airport Information Weather charts Add Link Nearby VenuesMetar ALERT Operation Metar Decoded Social comments